Time;durP1;ratioP1;P1;durP2;ratioP2;P2;SDS_P1;SDS_P2;PMS_P1;PMS_P2;Temp;Humidity;BMP_temperature;BMP_pressure;BME280_temperature;BME280_humidity;BME280_pressure;Samples;Min_cycle;Max_cycle;Signal;HPM_P1;HPM_P2
2022/05/27 00:01:55;;;;;;;8.35;2.17;;;;;;;13.83;84.62;101601.03;5037354;28;20029;-74
2022/05/27 00:04:20;;;;;;;8.55;2.13;;;;;;;13.82;84.29;101594.63;5038192;28;20033;-74
2022/05/27 00:06:46;;;;;;;8.18;2.10;;;;;;;13.82;83.82;101593.78;5032569;28;20600;-74
2022/05/27 00:09:11;;;;;;;7.50;2.63;;;;;;;13.83;83.49;101603.81;5037066;28;20091;-75
2022/05/27 00:11:37;;;;;;;8.95;2.22;;;;;;;13.84;84.42;101609.09;5037036;28;20029;-75
2022/05/27 00:14:02;;;;;;;8.50;2.58;;;;;;;13.84;84.13;101602.69;5037791;28;20050;-74
2022/05/27 00:16:28;;;;;;;7.70;2.15;;;;;;;13.85;83.92;101604.38;5036842;28;20069;-75
2022/05/27 00:18:54;;;;;;;8.40;2.40;;;;;;;13.83;83.90;101603.81;5038181;28;20057;-75
2022/05/27 00:21:20;;;;;;;8.23;2.05;;;;;;;13.84;84.91;101602.69;5037845;28;20108;-75
2022/05/27 00:23:46;;;;;;;11.63;2.55;;;;;;;13.84;84.09;101603.53;5020577;28;20066;-75
2022/05/27 00:26:11;;;;;;;10.57;2.78;;;;;;;13.82;84.57;101607.75;5036663;28;20048;-75
2022/05/27 00:28:37;;;;;;;10.68;2.97;;;;;;;13.80;84.06;101602.44;5036429;28;20026;-74
2022/05/27 00:31:05;;;;;;;11.07;2.33;;;;;;;13.81;84.19;101597.69;5037230;28;20026;-75
2022/05/27 00:33:31;;;;;;;7.05;2.10;;;;;;;13.80;84.06;101593.25;5037878;28;20029;-74
2022/05/27 00:35:57;;;;;;;11.13;2.83;;;;;;;13.84;83.90;101597.09;5037141;28;20041;-75
2022/05/27 00:38:22;;;;;;;6.97;2.17;;;;;;;13.83;84.59;101595.44;5037735;28;20381;-74
2022/05/27 00:40:50;;;;;;;9.40;2.45;;;;;;;13.81;84.53;101600.47;5037607;28;20034;-75
2022/05/27 00:43:16;;;;;;;10.73;2.60;;;;;;;13.83;84.79;101592.66;5019953;28;20032;-74
2022/05/27 00:45:43;;;;;;;8.52;2.63;;;;;;;13.85;84.51;101598.78;5037690;28;20509;-74
2022/05/27 00:48:14;;;;;;;9.13;2.50;;;;;;;13.84;84.17;101591.53;5036365;28;20109;-74
2022/05/27 00:50:41;;;;;;;6.13;2.72;;;;;;;13.85;84.80;101594.03;5022800;28;20029;-74
2022/05/27 00:53:06;;;;;;;9.20;2.60;;;;;;;13.85;84.87;101596.00;5019831;28;20095;-74
2022/05/27 00:55:34;;;;;;;8.73;2.58;;;;;;;13.83;84.41;101598.25;5036103;28;20033;-74
2022/05/27 00:58:16;;;;;;;8.30;2.25;;;;;;;13.83;84.16;101598.25;5019436;28;20036;-74
2022/05/27 01:00:41;;;;;;;10.23;2.72;;;;;;;13.84;83.98;101597.94;5036197;28;20044;-74
2022/05/27 01:03:07;;;;;;;7.32;2.50;;;;;;;13.84;84.50;101595.16;5037205;28;20038;-74
2022/05/27 01:05:33;;;;;;;9.75;2.40;;;;;;;13.84;84.25;101599.91;5036218;28;20112;-74
2022/05/27 01:08:01;;;;;;;8.82;2.30;;;;;;;13.85;84.52;101598.78;5040138;28;20029;-73
2022/05/27 01:10:27;;;;;;;8.65;2.45;;;;;;;13.83;84.08;101590.69;5035923;28;20029;-74
2022/05/27 01:13:13;;;;;;;9.25;2.60;;;;;;;13.83;84.41;101589.88;5034960;28;20421;-74
2022/05/27 01:15:48;;;;;;;7.65;2.42;;;;;;;13.81;84.25;101590.16;5033523;28;20490;-74
2022/05/27 01:18:22;;;;;;;12.10;2.78;;;;;;;13.83;84.32;101585.13;5037038;28;20669;-74
2022/05/27 01:21:09;;;;;;;11.32;2.70;;;;;;;13.78;84.37;101587.94;5036621;28;20030;-74
2022/05/27 01:23:59;;;;;;;7.00;2.28;;;;;;;13.77;84.43;101579.88;5003032;28;20029;-74
2022/05/27 01:26:36;;;;;;;10.70;3.15;;;;;;;13.73;84.09;101576.78;5019142;28;20030;-74
2022/05/27 01:29:36;;;;;;;8.40;2.40;;;;;;;13.77;84.46;101585.44;5017095;28;20169;-74
2022/05/27 01:32:23;;;;;;;8.48;2.28;;;;;;;13.69;84.27;101577.69;5032996;28;20401;-74
2022/05/27 01:35:20;;;;;;;8.20;2.85;;;;;;;13.66;84.29;101573.50;5005262;28;20108;-74
2022/05/27 01:38:16;;;;;;;9.45;2.63;;;;;;;13.61;84.41;101568.78;5035523;28;20029;-74
2022/05/27 01:40:50;;;;;;;5.97;2.33;;;;;;;13.62;84.49;101572.41;5021600;28;20029;-74
2022/05/27 01:43:25;;;;;;;6.85;2.40;;;;;;;13.58;84.43;101576.91;5034941;28;20037;-74
2022/05/27 01:46:09;;;;;;;8.70;2.75;;;;;;;13.55;84.57;101569.13;5019713;28;20033;-74
2022/05/27 01:48:58;;;;;;;10.07;2.60;;;;;;;13.49;84.45;101573.91;5005960;28;20085;-74
2022/05/27 01:51:26;;;;;;;9.15;2.42;;;;;;;13.50;84.56;101571.94;5032240;28;20045;-74
2022/05/27 01:53:53;;;;;;;8.13;2.60;;;;;;;13.45;84.61;101578.38;5018506;28;20448;-74
2022/05/27 01:56:20;;;;;;;7.97;2.55;;;;;;;13.40;84.56;101570.06;5034886;28;20041;-74
2022/05/27 01:59:13;;;;;;;7.60;2.92;;;;;;;13.37;85.02;101568.66;5034731;28;20473;-74
2022/05/27 02:01:41;;;;;;;10.55;2.50;;;;;;;13.40;85.01;101568.09;5032282;28;20072;-74
2022/05/27 02:04:17;;;;;;;8.88;2.85;;;;;;;13.35;85.11;101567.28;5018792;28;20029;-74
2022/05/27 02:06:49;;;;;;;7.57;2.75;;;;;;;13.33;85.20;101570.34;5033708;28;20490;-74
2022/05/27 02:09:27;;;;;;;10.10;2.83;;;;;;;13.31;85.15;101563.38;5018818;28;20029;-74
2022/05/27 02:11:58;;;;;;;7.93;2.88;;;;;;;13.30;85.19;101556.97;5018474;28;20041;-74
2022/05/27 02:14:29;;;;;;;12.00;2.88;;;;;;;13.31;85.33;101558.63;5033175;28;20105;-74
2022/05/27 02:17:04;;;;;;;10.35;2.92;;;;;;;13.28;86.52;101567.56;5031086;28;20055;-74
2022/05/27 02:19:39;;;;;;;12.52;3.15;;;;;;;13.29;85.71;101560.03;5039397;28;20033;-74
2022/05/27 02:22:23;;;;;;;11.98;3.33;;;;;;;13.24;86.25;101568.41;5018305;28;20033;-74
2022/05/27 02:25:05;;;;;;;8.25;2.63;;;;;;;13.21;86.04;101566.22;5032904;28;20076;-74
2022/05/27 02:27:38;;;;;;;10.43;3.22;;;;;;;13.18;86.40;101562.88;5031264;28;20091;-74
2022/05/27 02:30:07;;;;;;;12.18;2.80;;;;;;;13.21;86.15;101566.22;5031929;28;20041;-74
2022/05/27 02:32:39;;;;;;;9.23;3.10;;;;;;;13.18;85.96;101564.81;5034057;28;20104;-74
2022/05/27 02:35:09;;;;;;;7.33;2.43;;;;;;;13.15;86.44;101569.03;5034583;28;20413;-74
2022/05/27 02:37:49;;;;;;;7.18;2.47;;;;;;;13.17;86.01;101568.72;5034552;28;20025;-74
2022/05/27 02:40:23;;;;;;;6.75;2.60;;;;;;;13.16;86.30;101565.09;5019501;28;20116;-74
2022/05/27 02:43:03;;;;;;;8.20;2.40;;;;;;;13.17;85.75;101566.75;5017953;28;20025;-74
2022/05/27 02:45:44;;;;;;;7.57;3.15;;;;;;;13.16;85.95;101567.06;5033648;28;20488;-74
2022/05/27 02:48:45;;;;;;;8.10;2.38;;;;;;;13.15;86.39;101573.75;5035447;28;20053;-74
2022/05/27 02:51:46;;;;;;;10.25;3.05;;;;;;;13.16;86.30;101567.06;5022913;28;20069;-74
2022/05/27 02:54:44;;;;;;;9.32;2.30;;;;;;;13.13;86.18;101560.09;5020301;28;20041;-74
2022/05/27 02:57:35;;;;;;;7.53;2.33;;;;;;;13.11;85.88;101564.28;5027994;28;20049;-74
2022/05/27 03:00:04;;;;;;;6.38;2.88;;;;;;;13.11;86.38;101559.53;5018459;28;20080;-74
2022/05/27 03:02:30;;;;;;;7.70;2.50;;;;;;;13.12;86.71;101561.22;5035805;28;20466;-74
2022/05/27 03:04:58;;;;;;;9.32;2.92;;;;;;;13.07;86.41;101564.03;5034324;28;20123;-74
2022/05/27 03:07:30;;;;;;;12.75;2.92;;;;;;;13.11;86.89;101559.53;5018277;28;20045;-74
2022/05/27 03:10:43;;;;;;;10.00;2.85;;;;;;;13.11;86.41;101562.31;5035415;28;20108;-74
2022/05/27 03:13:50;;;;;;;8.15;3.00;;;;;;;13.10;86.38;101554.25;5010931;28;20161;-74
2022/05/27 03:16:48;;;;;;;9.90;2.80;;;;;;;13.09;86.38;101556.22;4983952;28;20053;-74
2022/05/27 03:19:38;;;;;;;7.97;2.90;;;;;;;13.10;86.46;101554.25;4996605;28;20026;-74
2022/05/27 03:22:08;;;;;;;8.70;2.65;;;;;;;13.11;86.25;101551.16;5013213;28;20394;-74
2022/05/27 03:24:42;;;;;;;7.28;2.22;;;;;;;13.08;85.97;101551.75;5013172;28;20442;-74
2022/05/27 03:27:17;;;;;;;8.63;2.90;;;;;;;13.10;86.45;101555.09;4996239;28;20125;-74
2022/05/27 03:30:04;;;;;;;8.05;2.67;;;;;;;13.12;86.48;101550.06;5011888;28;20101;-74
2022/05/27 03:32:47;;;;;;;7.32;2.58;;;;;;;13.11;86.52;101550.34;5012740;28;20030;-74
2022/05/27 03:35:13;;;;;;;;;;;;;;;13.12;86.42;101560.38;4994459;28;20050;-74
2022/05/27 03:37:50;;;;;;;8.82;3.20;;;;;;;13.06;87.45;101558.72;5016923;28;19910;-74
2022/05/27 03:40:23;;;;;;;10.50;2.90;;;;;;;13.07;87.75;101555.66;4998166;28;20057;-74
2022/05/27 03:42:48;;;;;;;10.43;2.80;;;;;;;13.08;87.16;101562.91;4999616;28;20029;-74
2022/05/27 03:45:16;;;;;;;14.52;3.15;;;;;;;13.09;87.54;101558.16;4984016;28;20061;-74
2022/05/27 03:47:42;;;;;;;11.48;2.58;;;;;;;13.11;86.59;101562.31;5032525;28;20069;-74
2022/05/27 03:50:15;;;;;;;9.10;2.50;;;;;;;13.11;86.52;101567.06;5038304;28;20030;-74
2022/05/27 03:52:42;;;;;;;8.65;2.70;;;;;;;13.08;86.67;101562.91;5021724;28;20038;-75
2022/05/27 03:55:09;;;;;;;9.15;2.85;;;;;;;13.09;86.77;101561.78;5038567;28;20033;-74
2022/05/27 03:57:34;;;;;;;6.20;2.67;;;;;;;13.09;86.42;101566.50;5038211;28;20064;-75
2022/05/27 04:00:00;;;;;;;7.82;2.60;;;;;;;13.11;86.81;101562.31;5036957;28;20017;-74
2022/05/27 04:02:25;;;;;;;8.23;2.88;;;;;;;13.14;86.69;101566.50;5038780;28;20417;-75
2022/05/27 04:04:51;;;;;;;8.30;2.78;;;;;;;13.12;86.99;101572.38;5038989;28;20033;-75
2022/05/27 04:07:16;;;;;;;9.00;2.47;;;;;;;13.11;86.47;101576.28;5037180;28;20037;-74
2022/05/27 04:09:42;;;;;;;6.53;2.40;;;;;;;13.15;86.36;101576.56;5038271;28;20033;-75
2022/05/27 04:12:07;;;;;;;7.13;2.30;;;;;;;13.14;86.68;101574.88;5037728;28;20041;-74
2022/05/27 04:14:33;;;;;;;8.18;2.63;;;;;;;13.15;86.51;101574.59;5035325;28;20034;-75
2022/05/27 04:19:43;;;;;;;5.45;2.42;;;;;;;13.13;85.85;101582.41;5037001;28;20029;-74
2022/05/27 04:22:08;;;;;;;8.50;2.40;;;;;;;13.13;86.25;101571.25;5038130;28;20110;-74
2022/05/27 04:24:34;;;;;;;7.28;2.33;;;;;;;13.17;86.28;101577.09;5037731;28;20061;-74
2022/05/27 04:27:00;;;;;;;6.68;2.33;;;;;;;13.13;86.21;101574.03;5037677;28;20032;-74
2022/05/27 04:29:25;;;;;;;4.95;2.00;;;;;;;13.14;86.39;101578.47;5035939;28;20072;-74
2022/05/27 04:31:51;;;;;;;8.20;2.33;;;;;;;13.14;86.18;101572.06;5019981;28;20038;-74
2022/05/27 04:34:16;;;;;;;5.72;2.33;;;;;;;13.17;86.63;101577.91;5036614;28;20032;-74
2022/05/27 04:36:42;;;;;;;7.97;2.53;;;;;;;13.18;86.80;101574.03;5037957;28;20109;-74
2022/05/27 04:39:07;;;;;;;4.70;2.00;;;;;;;13.21;87.13;101577.38;5037515;28;20429;-74
2022/05/27 04:41:33;;;;;;;4.93;2.30;;;;;;;13.21;86.50;101571.78;5036325;28;20083;-74
2022/05/27 04:43:58;;;;;;;5.75;2.40;;;;;;;13.21;87.14;101572.63;5037368;28;20033;-74
2022/05/27 04:46:24;;;;;;;7.60;2.28;;;;;;;13.21;87.17;101572.63;5037627;28;20037;-74
2022/05/27 04:48:49;;;;;;;8.13;2.30;;;;;;;13.23;87.36;101573.13;5034510;28;20057;-74
2022/05/27 04:51:15;;;;;;;7.00;2.00;;;;;;;13.25;87.51;101572.88;5036409;28;20038;-74
2022/05/27 04:53:40;;;;;;;5.70;2.05;;;;;;;13.26;87.99;101577.34;5037352;28;20036;-74
2022/05/27 04:56:08;;;;;;;8.77;2.33;;;;;;;13.28;88.17;101575.94;5036122;28;20030;-74
2022/05/27 04:58:34;;;;;;;6.15;1.98;;;;;;;13.31;88.55;101568.97;5035893;28;20061;-74
2022/05/27 05:00:59;;;;;;;7.65;2.08;;;;;;;13.32;88.64;101571.47;5037388;28;20083;-74
2022/05/27 05:03:25;;;;;;;3.70;1.80;;;;;;;13.34;87.90;101582.34;5037267;28;20689;-74
2022/05/27 05:05:50;;;;;;;9.70;2.30;;;;;;;13.35;88.71;101579.28;5037650;28;20033;-74
2022/05/27 05:08:20;;;;;;;5.95;2.00;;;;;;;13.39;88.37;101579.53;5037143;28;20088;-74
2022/05/27 05:10:46;;;;;;;4.78;1.63;;;;;;;13.43;88.53;101588.16;5035905;28;20056;-74
2022/05/27 05:13:11;;;;;;;6.40;2.20;;;;;;;13.44;87.76;101576.72;5036816;28;20494;-74
2022/05/27 05:15:37;;;;;;;6.28;2.30;;;;;;;13.45;88.21;101589.53;5034026;28;20394;-74
2022/05/27 05:18:03;;;;;;;7.00;1.80;;;;;;;13.49;88.06;101584.22;5019326;28;20061;-74
2022/05/27 05:20:29;;;;;;;8.55;2.22;;;;;;;13.53;88.02;101582.50;5037006;28;20040;-74
2022/05/27 05:22:55;;;;;;;5.07;2.00;;;;;;;13.54;88.42;101582.25;5036853;28;20025;-74
2022/05/27 05:25:23;;;;;;;6.65;2.08;;;;;;;13.57;88.71;101580.84;5037096;28;20084;-74
2022/05/27 05:27:48;;;;;;;7.18;2.00;;;;;;;13.61;87.79;101577.16;5036480;28;20052;-74
2022/05/27 05:30:15;;;;;;;5.20;2.10;;;;;;;13.64;87.05;101589.72;5034382;28;20041;-74
2022/05/27 05:32:41;;;;;;;6.88;2.13;;;;;;;13.67;88.72;101585.50;5036364;28;20367;-74
2022/05/27 05:35:08;;;;;;;9.38;2.22;;;;;;;13.69;87.33;101592.47;5036502;28;20040;-74
2022/05/27 05:37:33;;;;;;;5.82;1.95;;;;;;;13.75;87.91;101587.69;5035429;28;20029;-74
2022/05/27 05:39:59;;;;;;;4.68;1.80;;;;;;;13.75;87.76;101587.69;5036399;28;20037;-74
2022/05/27 05:42:25;;;;;;;4.32;1.80;;;;;;;13.78;87.48;101593.53;5036403;28;20025;-74
2022/05/27 05:44:50;;;;;;;6.88;1.90;;;;;;;13.78;89.04;101596.31;5036502;28;20032;-74
2022/05/27 05:47:16;;;;;;;4.82;2.05;;;;;;;13.81;89.70;101590.16;5036521;28;20049;-74
2022/05/27 05:49:41;;;;;;;7.10;2.03;;;;;;;13.82;89.60;101589.03;5036239;28;20083;-74
2022/05/27 05:52:07;;;;;;;6.63;2.10;;;;;;;13.88;88.79;101580.63;5039683;28;20125;-74
2022/05/27 05:54:32;;;;;;;5.82;1.80;;;;;;;13.92;88.41;101588.13;5035160;28;20055;-74
2022/05/27 05:57:02;;;;;;;5.78;1.88;;;;;;;13.96;88.49;101589.22;5035840;28;20033;-74
2022/05/27 05:59:29;;;;;;;7.07;2.17;;;;;;;14.00;87.94;101590.28;5035004;28;20064;-74
2022/05/27 06:01:55;;;;;;;6.38;1.70;;;;;;;14.03;87.57;101589.72;5018368;28;20378;-74
2022/05/27 06:04:20;;;;;;;9.57;1.80;;;;;;;14.06;86.78;101588.28;5035929;28;20037;-74
2022/05/27 06:06:47;;;;;;;6.22;1.85;;;;;;;14.14;87.65;101600.81;5036262;28;20041;-74
2022/05/27 06:09:12;;;;;;;6.13;1.73;;;;;;;14.20;86.72;101591.25;5036073;28;20048;-74
2022/05/27 06:11:38;;;;;;;10.45;1.90;;;;;;;14.25;87.45;101589.25;5036060;28;20597;-74
2022/05/27 06:14:04;;;;;;;7.95;2.35;;;;;;;14.34;87.18;101595.03;5034242;28;20037;-74
2022/05/27 06:16:30;;;;;;;6.28;1.85;;;;;;;14.40;87.45;101588.31;5031961;28;20029;-74
2022/05/27 06:18:55;;;;;;;5.53;1.80;;;;;;;14.49;86.50;101596.88;5037215;28;20041;-74
2022/05/27 06:21:21;;;;;;;7.55;1.90;;;;;;;14.58;85.86;101594.31;5035818;28;20548;-74
2022/05/27 06:23:47;;;;;;;7.13;1.80;;;;;;;14.68;85.86;101588.59;5035968;28;20092;-74
2022/05/27 06:26:12;;;;;;;6.45;1.55;;;;;;;14.77;85.82;101588.81;5035761;28;20041;-74
2022/05/27 06:34:25;;;;;;;8.25;1.73;;;;;;;15.12;84.46;101595.94;5033256;28;20024;-74
2022/05/27 06:37:07;;;;;;;5.85;1.58;;;;;;;15.26;83.68;101596.03;5034565;28;20108;-74
2022/05/27 06:39:34;;;;;;;5.72;1.83;;;;;;;15.38;82.67;101596.47;5031572;28;20072;-74
2022/05/27 06:42:00;;;;;;;7.55;1.83;;;;;;;15.49;82.02;101585.94;5033031;28;20382;-74
2022/05/27 06:44:26;;;;;;;6.97;1.83;;;;;;;15.64;81.36;101594.13;5035755;28;20033;-74
2022/05/27 06:46:52;;;;;;;4.32;1.60;;;;;;;15.75;81.22;101587.28;5035424;28;20469;-74
2022/05/27 06:49:20;;;;;;;4.38;1.65;;;;;;;15.90;80.45;101589.00;5001260;28;20025;-78
2022/05/27 06:51:46;;;;;;;4.95;1.52;;;;;;;16.05;80.71;101593.56;5001561;28;20030;-77
2022/05/27 06:54:12;;;;;;;6.82;1.65;;;;;;;16.17;80.04;101585.50;4985741;28;20033;-78
2022/05/27 06:56:38;;;;;;;7.57;1.60;;;;;;;16.35;79.61;101594.16;5015163;28;20029;-78
2022/05/27 06:59:04;;;;;;;5.10;1.48;;;;;;;16.49;78.41;101603.44;5027671;28;20033;-78
2022/05/27 07:01:30;;;;;;;3.67;1.20;;;;;;;16.62;78.04;101596.22;5034020;28;20033;-77
2022/05/27 07:03:55;;;;;;;3.85;1.30;;;;;;;16.75;77.19;101601.84;5033849;28;20032;-78
2022/05/27 07:06:20;;;;;;;5.57;1.35;;;;;;;16.85;76.97;101605.63;5001971;28;20462;-78
2022/05/27 07:08:46;;;;;;;2.88;1.20;;;;;;;16.95;76.59;101605.44;4985089;28;20033;-78
2022/05/27 07:11:11;;;;;;;4.65;1.20;;;;;;;17.02;76.31;101602.22;5019164;28;20040;-78
2022/05/27 07:13:37;;;;;;;3.17;1.05;;;;;;;17.08;76.39;101607.44;4999146;28;20061;-78
2022/05/27 07:16:04;;;;;;;3.67;1.08;;;;;;;17.12;76.32;101610.44;5022493;28;20034;-78
2022/05/27 07:18:31;;;;;;;3.53;1.10;;;;;;;17.20;75.99;101613.34;5038159;28;20055;-78
2022/05/27 07:21:01;;;;;;;3.90;1.20;;;;;;;17.28;74.99;101619.38;5039425;28;20033;-78
2022/05/27 07:23:26;;;;;;;3.88;1.33;;;;;;;17.34;75.26;101612.50;5039435;28;20025;-77
2022/05/27 07:25:52;;;;;;;6.72;1.40;;;;;;;17.38;75.73;101608.78;5041763;28;20544;-78
2022/05/27 07:28:17;;;;;;;3.60;1.20;;;;;;;17.46;74.83;101612.78;5037363;28;20040;-77
2022/05/27 07:30:43;;;;;;;4.32;1.00;;;;;;;17.54;74.92;101608.41;5018884;28;20033;-78
2022/05/27 07:33:08;;;;;;;2.72;1.15;;;;;;;17.62;75.12;101602.88;5037863;28;20029;-77
2022/05/27 07:35:34;;;;;;;3.45;0.98;;;;;;;17.74;73.96;101607.94;5038503;28;20041;-78
2022/05/27 07:37:59;;;;;;;4.25;0.95;;;;;;;17.85;73.88;101608.59;5034878;28;20038;-78
2022/05/27 07:40:25;;;;;;;6.05;1.23;;;;;;;17.97;73.42;101614.50;5041455;28;20036;-78
2022/05/27 07:42:50;;;;;;;6.90;1.48;;;;;;;18.10;72.56;101612.75;5021188;28;20026;-78
2022/05/27 07:45:17;;;;;;;4.53;1.27;;;;;;;18.18;73.54;101620.44;5017143;28;20037;-78
2022/05/27 07:47:42;;;;;;;4.22;1.17;;;;;;;18.29;72.91;101615.41;5038896;28;20030;-78
2022/05/27 07:50:09;;;;;;;3.40;1.30;;;;;;;18.41;72.03;101617.63;5038520;28;20401;-78
2022/05/27 07:52:36;;;;;;;8.15;1.50;;;;;;;18.48;72.33;101618.00;5037437;28;20037;-77
2022/05/27 07:55:02;;;;;;;3.33;1.00;;;;;;;18.58;71.40;101611.28;5021055;28;20063;-78
2022/05/27 07:57:28;;;;;;;3.38;0.85;;;;;;;18.64;70.97;101610.00;5020314;28;20113;-78
2022/05/27 07:59:54;;;;;;;5.53;1.00;;;;;;;18.72;70.89;101612.03;5038777;28;20034;-78
2022/05/27 08:02:20;;;;;;;4.22;0.98;;;;;;;18.79;70.80;101609.63;5038934;28;20470;-74
2022/05/27 08:04:46;;;;;;;6.57;1.80;;;;;;;18.86;71.80;101607.19;5036915;28;20147;-73
2022/05/27 08:07:11;;;;;;;5.50;1.48;;;;;;;18.94;70.44;101614.84;5037061;28;20025;-74
2022/05/27 08:09:37;;;;;;;6.65;0.98;;;;;;;19.03;70.10;101608.38;5037224;28;20441;-73
2022/05/27 08:12:03;;;;;;;4.75;0.90;;;;;;;19.10;69.64;101611.56;5037833;28;20081;-74
2022/05/27 08:14:28;;;;;;;2.53;1.02;;;;;;;19.19;69.59;101620.88;5037759;28;20048;-74
2022/05/27 08:16:54;;;;;;;2.17;0.98;;;;;;;19.27;69.23;101611.63;5038346;28;20029;-74
2022/05/27 08:19:19;;;;;;;1.83;0.85;;;;;;;19.35;69.67;101615.63;5038159;28;20041;-77
2022/05/27 08:21:44;;;;;;;3.17;1.00;;;;;;;19.43;68.65;101612.03;5019525;28;20382;-76
2022/05/27 08:24:10;;;;;;;5.05;1.10;;;;;;;19.49;69.57;101607.88;5036461;28;20033;-75
2022/05/27 08:26:37;;;;;;;3.38;0.93;;;;;;;19.52;69.14;101607.22;5032902;28;20025;-75
2022/05/27 08:29:03;;;;;;;2.97;0.80;;;;;;;19.60;68.87;101612.03;4986945;28;20069;-76
2022/05/27 08:31:28;;;;;;;3.30;1.00;;;;;;;19.64;67.75;101612.25;4987956;28;20034;-75
2022/05/27 08:39:22;;;;;;;4.72;1.10;;;;;;;19.61;68.45;101619.38;5022499;28;20522;-80
2022/05/27 08:42:19;;;;;;;4.00;1.20;;;;;;;19.63;68.20;101614.19;5003514;28;20030;-80
2022/05/27 08:44:51;;;;;;;2.88;0.95;;;;;;;19.65;68.27;101616.72;5002437;28;20033;-77
2022/05/27 08:47:22;;;;;;;3.60;0.85;;;;;;;19.64;68.25;101609.44;5019275;28;20030;-79
2022/05/27 08:50:02;;;;;;;2.55;0.70;;;;;;;19.67;67.78;101614.44;4997264;28;20432;-79
2022/05/27 08:52:36;;;;;;;1.67;0.60;;;;;;;19.62;68.85;101611.72;5018108;28;20044;-79
2022/05/27 08:59:26;;;;;;;3.03;0.80;;;;;;;19.66;68.71;101617.56;5033013;28;20037;-79
2022/05/27 09:00:47;;;;;;;3.75;0.75;;;;;;;19.63;68.46;101611.38;5022120;28;20033;-79
2022/05/27 09:03:12;;;;;;;3.13;0.85;;;;;;;19.61;68.91;101615.69;5036174;28;20042;-79
2022/05/27 09:05:43;;;;;;;4.38;0.70;;;;;;;19.59;68.31;101621.66;5016171;28;20037;-79
2022/05/27 09:08:19;;;;;;;2.97;0.70;;;;;;;19.58;68.67;101619.16;5016774;28;20511;-79
2022/05/27 09:11:12;;;;;;;2.05;0.70;;;;;;;19.50;69.10;101619.97;5035914;28;20510;-79
2022/05/27 09:13:52;;;;;;;4.20;0.93;;;;;;;19.49;69.38;101619.16;5035079;28;20095;-80
2022/05/27 09:16:31;;;;;;;3.17;0.77;;;;;;;19.48;69.11;101619.50;5033653;28;20480;-79
2022/05/27 09:19:16;;;;;;;8.40;1.17;;;;;;;19.42;69.31;101613.19;4999503;28;20046;-72
2022/05/27 09:22:12;;;;;;;6.80;1.17;;;;;;;19.38;69.39;101615.81;5036110;28;20033;-73
2022/05/27 09:25:04;;;;;;;3.60;0.93;;;;;;;19.31;70.31;101609.00;5018795;28;20041;-73
2022/05/27 09:28:18;;;;;;;5.33;1.03;;;;;;;19.35;70.24;101619.28;5020501;28;20025;-73
2022/05/27 09:30:43;;;;;;;3.58;1.00;;;;;;;19.35;69.71;101622.09;5030253;28;20627;-73
2022/05/27 09:33:13;;;;;;;2.40;1.08;;;;;;;19.39;69.81;101611.84;5035193;28;20029;-73
2022/05/27 09:35:58;;;;;;;3.72;0.70;;;;;;;19.43;69.59;101610.03;5036661;28;20039;-73
2022/05/27 09:38:26;;;;;;;2.53;0.85;;;;;;;19.49;69.87;101612.69;5021462;28;20045;-73
2022/05/27 09:40:58;;;;;;;4.07;1.02;;;;;;;19.52;70.50;101617.66;5036679;28;20038;-73
2022/05/27 09:43:39;;;;;;;3.22;1.00;;;;;;;19.54;70.36;101616.19;5036247;28;20082;-73
2022/05/27 09:46:09;;;;;;;2.95;0.98;;;;;;;19.60;70.48;101622.50;5035575;28;20036;-73
2022/05/27 09:48:34;;;;;;;3.88;0.88;;;;;;;19.65;70.34;101625.16;5018701;28;20068;-73
2022/05/27 09:51:02;;;;;;;2.15;0.75;;;;;;;19.71;69.75;101618.22;5035177;28;20655;-73
2022/05/27 09:53:41;;;;;;;2.05;0.80;;;;;;;19.77;68.97;101622.53;5019253;28;20033;-73
2022/05/27 09:56:11;;;;;;;5.05;0.90;;;;;;;19.86;68.20;101626.22;5033500;28;20065;-73
2022/05/27 09:58:41;;;;;;;3.13;1.63;;;;;;;19.92;68.14;101620.41;5034555;28;20065;-73
2022/05/27 10:01:27;;;;;;;1.55;1.45;;;;;;;19.99;68.35;101620.75;5036225;28;20084;-73
2022/05/27 10:04:06;;;;;;;1.98;1.02;;;;;;;20.07;67.59;101608.66;5036259;28;20390;-73
2022/05/27 10:06:34;;;;;;;4.05;1.20;;;;;;;20.20;67.32;101606.81;5035006;28;20116;-73
2022/05/27 10:09:01;;;;;;;1.23;0.80;;;;;;;20.30;67.06;101610.09;5018827;28;20033;-73
2022/05/27 10:11:27;;;;;;;1.80;0.93;;;;;;;20.39;66.60;101603.63;5036197;28;20033;-73
2022/05/27 10:14:10;;;;;;;2.50;0.82;;;;;;;20.49;67.04;101600.47;5035125;28;20094;-73
2022/05/27 10:16:40;;;;;;;1.65;0.93;;;;;;;20.61;66.41;101602.63;5030375;28;20378;-73
2022/05/27 10:19:13;;;;;;;1.58;0.70;;;;;;;20.73;65.81;101606.41;5034794;28;20078;-73
2022/05/27 10:21:59;;;;;;;4.00;0.98;;;;;;;20.86;65.04;101603.69;5061848;28;20025;-73
2022/05/27 10:24:36;;;;;;;1.17;0.82;;;;;;;20.98;64.88;101607.50;5038700;28;20405;-73
2022/05/27 10:27:15;;;;;;;2.92;0.88;;;;;;;21.06;64.18;101599.31;5017677;28;20087;-72
2022/05/27 10:29:53;;;;;;;2.47;0.80;;;;;;;21.11;64.13;101594.28;5036943;28;20030;-73
2022/05/27 10:32:33;;;;;;;1.88;0.90;;;;;;;21.10;64.65;101594.66;5034542;28;20033;-73
2022/05/27 10:35:00;;;;;;;2.83;0.82;;;;;;;21.20;64.27;101600.75;5035782;28;20064;-73
2022/05/27 10:37:44;;;;;;;1.30;0.68;;;;;;;21.24;64.04;101600.06;5034436;28;20522;-73
2022/05/27 10:40:15;;;;;;;2.38;0.77;;;;;;;21.32;63.46;101587.88;5034290;28;20029;-73
2022/05/27 10:43:19;;;;;;;1.98;0.70;;;;;;;21.36;63.31;101586.03;5031808;28;20024;-73
2022/05/27 10:45:47;;;;;;;2.35;0.70;;;;;;;21.48;62.96;101585.31;4990681;28;20038;-73
2022/05/27 10:48:15;;;;;;;1.25;0.70;;;;;;;21.58;62.95;101576.44;4993491;28;20055;-73
2022/05/27 10:50:40;;;;;;;2.05;0.82;;;;;;;21.71;62.44;101578.19;5014558;28;20045;-73
2022/05/27 10:53:18;;;;;;;2.35;0.93;;;;;;;21.87;62.17;101584.06;5029617;28;20037;-73
2022/05/27 10:56:02;;;;;;;2.40;1.50;;;;;;;21.99;62.86;101586.94;5035550;28;20060;-73
2022/05/27 11:02:04;;;;;;;2.28;1.40;;;;;;;22.15;62.06;101586.28;5031734;28;20485;-72
2022/05/27 11:04:43;;;;;;;3.35;1.20;;;;;;;22.16;61.66;101588.78;5033628;28;20041;-73
2022/05/27 11:07:23;;;;;;;1.98;0.70;;;;;;;22.21;61.19;101590.59;5034468;28;20029;-73
2022/05/27 11:09:52;;;;;;;2.92;0.98;;;;;;;22.16;60.90;101577.47;5031926;28;20036;-73
2022/05/27 11:15:33;;;;;;;1.88;0.90;;;;;;;21.98;62.10;101576.81;5029223;28;20036;-73
2022/05/27 11:18:08;;;;;;;1.75;0.70;;;;;;;21.95;62.36;101582.31;5017633;28;20029;-73
2022/05/27 11:21:03;;;;;;;1.23;0.70;;;;;;;21.90;62.63;101576.84;5031706;28;20108;-73
2022/05/27 11:23:31;;;;;;;1.42;0.50;;;;;;;21.78;63.21;101577.63;4998469;28;20486;-73
2022/05/27 11:26:05;;;;;;;1.15;0.40;;;;;;;21.69;62.75;101568.38;5032898;28;20033;-72
2022/05/27 11:28:43;;;;;;;1.63;0.80;;;;;;;21.74;62.59;101565.34;5030875;28;20048;-73
2022/05/27 11:31:21;;;;;;;1.20;0.50;;;;;;;21.77;62.74;101559.00;5017697;28;20083;-73
2022/05/27 11:34:14;;;;;;;1.38;0.50;;;;;;;21.76;62.57;101555.38;5035281;28;20041;-73
2022/05/27 11:36:48;;;;;;;0.70;0.50;;;;;;;21.79;62.31;101573.63;5046280;28;20033;-72
2022/05/27 11:39:32;;;;;;;1.50;0.50;;;;;;;21.78;62.22;101561.47;5030148;28;20026;-72
2022/05/27 11:42:12;;;;;;;0.68;0.40;;;;;;;21.77;62.11;101559.00;5033524;28;20036;-72
2022/05/27 11:44:46;;;;;;;1.25;0.50;;;;;;;21.70;62.86;101565.19;5033903;28;20077;-72
2022/05/27 11:47:24;;;;;;;1.10;0.40;;;;;;;21.70;62.47;101565.19;5031928;28;20030;-72
2022/05/27 11:50:47;;;;;;;1.42;0.65;;;;;;;21.72;63.02;101557.22;5030559;28;20425;-72
2022/05/27 11:53:21;;;;;;;1.05;0.40;;;;;;;21.73;62.65;101558.03;5008656;28;20046;-72
2022/05/27 11:56:10;;;;;;;1.83;0.70;;;;;;;21.74;62.64;101554.03;5012874;28;20034;-72
2022/05/27 11:58:51;;;;;;;1.08;0.50;;;;;;;21.75;62.59;101547.22;5058439;28;20104;-72
2022/05/27 12:01:23;;;;;;;1.77;0.55;;;;;;;21.74;62.64;101549.22;5037082;28;20121;-72
2022/05/27 12:04:00;;;;;;;1.05;0.40;;;;;;;21.56;63.28;101564.63;5037230;28;20073;-72
2022/05/27 12:06:33;;;;;;;1.08;0.40;;;;;;;21.56;63.54;101551.38;5036891;28;20090;-73
2022/05/27 12:09:00;;;;;;;;;;;;;;;21.55;63.10;101560.16;5017471;28;20025;-73
2022/05/27 12:11:50;;;;;;;2.58;1.05;;;;;;;21.50;62.99;101561.19;5036800;28;19949;-73